sensor_id;sensor_type;location;lat;lon;timestamp;pressure;altitude;pressure_sealevel;temperature;humidity
20889;BME280;10604;51.976;7.594;2023-09-18T00:00:44;100016.66;;;45.17;22.19
20889;BME280;10604;51.976;7.594;2023-09-18T00:03:10;100015.88;;;45.07;22.61
20889;BME280;10604;51.976;7.594;2023-09-18T00:05:35;100007.56;;;45.36;22.08
20889;BME280;10604;51.976;7.594;2023-09-18T00:08:00;99991.69;;;45.02;22.51
20889;BME280;10604;51.976;7.594;2023-09-18T00:10:28;99993.53;;;44.83;22.40
20889;BME280;10604;51.976;7.594;2023-09-18T00:12:55;99988.84;;;45.07;22.29
20889;BME280;10604;51.976;7.594;2023-09-18T00:15:21;99982.19;;;45.08;22.05
20889;BME280;10604;51.976;7.594;2023-09-18T00:17:46;99979.78;;;44.92;22.37
20889;BME280;10604;51.976;7.594;2023-09-18T00:20:11;99963.16;;;45.15;22.42
20889;BME280;10604;51.976;7.594;2023-09-18T00:22:37;99960.16;;;45.36;22.23
20889;BME280;10604;51.976;7.594;2023-09-18T00:25:02;99953.88;;;45.54;21.82
20889;BME280;10604;51.976;7.594;2023-09-18T00:27:28;99947.19;;;44.92;22.08
20889;BME280;10604;51.976;7.594;2023-09-18T00:29:53;99946.44;;;44.81;22.12
20889;BME280;10604;51.976;7.594;2023-09-18T00:32:18;99938.88;;;45.45;22.11
20889;BME280;10604;51.976;7.594;2023-09-18T00:34:44;99940.06;;;45.39;21.97
20889;BME280;10604;51.976;7.594;2023-09-18T00:37:09;99940.91;;;45.05;22.56
20889;BME280;10604;51.976;7.594;2023-09-18T00:39:37;99942.31;;;45.37;22.01
20889;BME280;10604;51.976;7.594;2023-09-18T00:42:02;99946.50;;;45.10;22.39
20889;BME280;10604;51.976;7.594;2023-09-18T00:44:27;99940.00;;;44.86;22.50
20889;BME280;10604;51.976;7.594;2023-09-18T00:46:52;99934.88;;;44.98;22.67
20889;BME280;10604;51.976;7.594;2023-09-18T00:49:20;99944.91;;;45.28;22.20
20889;BME280;10604;51.976;7.594;2023-09-18T00:51:45;99942.59;;;45.06;22.42
20889;BME280;10604;51.976;7.594;2023-09-18T00:54:12;99935.13;;;45.02;22.43
20889;BME280;10604;51.976;7.594;2023-09-18T00:56:39;99919.94;;;44.89;22.55
20889;BME280;10604;51.976;7.594;2023-09-18T00:59:05;99907.81;;;45.33;22.33
20889;BME280;10604;51.976;7.594;2023-09-18T01:01:30;99912.91;;;44.92;22.21
20889;BME280;10604;51.976;7.594;2023-09-18T01:03:56;99900.38;;;44.94;22.74
20889;BME280;10604;51.976;7.594;2023-09-18T01:06:24;99899.25;;;44.95;22.67
20889;BME280;10604;51.976;7.594;2023-09-18T01:08:50;99891.47;;;44.92;22.67
20889;BME280;10604;51.976;7.594;2023-09-18T01:11:39;99892.84;;;45.23;22.21
20889;BME280;10604;51.976;7.594;2023-09-18T01:16:50;99889.78;;;44.91;22.13
20889;BME280;10604;51.976;7.594;2023-09-18T01:19:34;99880.44;;;44.82;22.88
20889;BME280;10604;51.976;7.594;2023-09-18T01:21:59;99872.41;;;45.04;22.51
20889;BME280;10604;51.976;7.594;2023-09-18T01:24:24;99870.06;;;45.16;22.34
20889;BME280;10604;51.976;7.594;2023-09-18T01:26:49;99852.59;;;45.06;22.26
20889;BME280;10604;51.976;7.594;2023-09-18T01:29:15;99851.69;;;45.15;22.51
20889;BME280;10604;51.976;7.594;2023-09-18T01:31:40;99851.88;;;44.95;22.36
20889;BME280;10604;51.976;7.594;2023-09-18T01:34:05;99844.66;;;44.94;22.47
20889;BME280;10604;51.976;7.594;2023-09-18T01:36:32;99840.88;;;44.80;22.79
20889;BME280;10604;51.976;7.594;2023-09-18T01:38:57;99840.19;;;44.93;22.60
20889;BME280;10604;51.976;7.594;2023-09-18T01:41:22;99841.44;;;45.06;22.71
20889;BME280;10604;51.976;7.594;2023-09-18T01:43:48;99842.06;;;45.03;22.42
20889;BME280;10604;51.976;7.594;2023-09-18T01:46:13;99840.06;;;45.08;22.27
20889;BME280;10604;51.976;7.594;2023-09-18T01:48:44;99833.28;;;44.91;22.10
20889;BME280;10604;51.976;7.594;2023-09-18T01:51:10;99837.63;;;44.73;22.18
20889;BME280;10604;51.976;7.594;2023-09-18T01:53:38;99831.34;;;44.86;22.47
20889;BME280;10604;51.976;7.594;2023-09-18T01:56:03;99828.19;;;45.21;21.99
20889;BME280;10604;51.976;7.594;2023-09-18T01:58:28;99826.88;;;45.14;22.42
20889;BME280;10604;51.976;7.594;2023-09-18T02:00:53;99824.59;;;44.92;22.06
20889;BME280;10604;51.976;7.594;2023-09-18T02:03:19;99826.75;;;45.00;22.37
20889;BME280;10604;51.976;7.594;2023-09-18T02:05:45;99825.16;;;44.94;21.97
20889;BME280;10604;51.976;7.594;2023-09-18T02:08:10;99822.84;;;45.01;22.31
20889;BME280;10604;51.976;7.594;2023-09-18T02:10:36;99830.03;;;44.78;22.15
20889;BME280;10604;51.976;7.594;2023-09-18T02:13:01;99820.16;;;44.91;22.41
20889;BME280;10604;51.976;7.594;2023-09-18T02:15:26;99817.81;;;45.03;21.98
20889;BME280;10604;51.976;7.594;2023-09-18T02:17:52;99810.63;;;44.97;22.44
20889;BME280;10604;51.976;7.594;2023-09-18T02:20:17;99804.66;;;45.33;21.67
20889;BME280;10604;51.976;7.594;2023-09-18T02:22:43;99794.50;;;44.94;21.88
20889;BME280;10604;51.976;7.594;2023-09-18T02:25:11;99798.63;;;44.73;22.50
20889;BME280;10604;51.976;7.594;2023-09-18T02:27:37;99791.34;;;44.77;22.61
20889;BME280;10604;51.976;7.594;2023-09-18T02:30:02;99790.94;;;44.60;22.32
20889;BME280;10604;51.976;7.594;2023-09-18T02:32:27;99774.16;;;44.65;22.73
20889;BME280;10604;51.976;7.594;2023-09-18T02:34:53;99779.69;;;44.75;22.60
20889;BME280;10604;51.976;7.594;2023-09-18T02:37:18;99776.41;;;44.63;22.96
20889;BME280;10604;51.976;7.594;2023-09-18T02:39:43;99763.72;;;44.80;22.42
20889;BME280;10604;51.976;7.594;2023-09-18T02:42:08;99764.63;;;44.76;22.25
20889;BME280;10604;51.976;7.594;2023-09-18T02:44:33;99753.63;;;43.98;23.35
20889;BME280;10604;51.976;7.594;2023-09-18T02:46:59;99753.09;;;45.06;22.50
20889;BME280;10604;51.976;7.594;2023-09-18T02:49:24;99751.13;;;44.88;22.72
20889;BME280;10604;51.976;7.594;2023-09-18T02:51:49;99744.53;;;44.79;22.41
20889;BME280;10604;51.976;7.594;2023-09-18T02:54:15;99739.59;;;44.71;22.16
20889;BME280;10604;51.976;7.594;2023-09-18T02:56:40;99733.69;;;44.77;22.20
20889;BME280;10604;51.976;7.594;2023-09-18T02:59:05;99720.94;;;44.95;22.37
20889;BME280;10604;51.976;7.594;2023-09-18T03:01:30;99713.84;;;45.27;22.28
20889;BME280;10604;51.976;7.594;2023-09-18T03:03:55;99705.81;;;45.01;22.76
20889;BME280;10604;51.976;7.594;2023-09-18T03:06:21;99710.91;;;44.94;22.36
20889;BME280;10604;51.976;7.594;2023-09-18T03:08:46;99701.25;;;44.86;22.94
20889;BME280;10604;51.976;7.594;2023-09-18T03:11:12;99693.00;;;45.00;22.95
20889;BME280;10604;51.976;7.594;2023-09-18T03:13:42;99688.16;;;45.11;22.81
20889;BME280;10604;51.976;7.594;2023-09-18T03:16:09;99677.38;;;45.04;22.88
20889;BME280;10604;51.976;7.594;2023-09-18T03:18:34;99669.09;;;45.37;22.32
20889;BME280;10604;51.976;7.594;2023-09-18T03:21:00;99658.34;;;45.30;22.19
20889;BME280;10604;51.976;7.594;2023-09-18T03:23:25;99658.25;;;45.16;22.17
20889;BME280;10604;51.976;7.594;2023-09-18T03:25:50;99642.06;;;45.18;22.49
20889;BME280;10604;51.976;7.594;2023-09-18T03:28:15;99638.47;;;44.94;22.48
20889;BME280;10604;51.976;7.594;2023-09-18T03:30:41;99627.22;;;45.04;22.75
20889;BME280;10604;51.976;7.594;2023-09-18T03:33:06;99628.28;;;45.08;22.54
20889;BME280;10604;51.976;7.594;2023-09-18T03:35:31;99613.44;;;45.13;22.41
20889;BME280;10604;51.976;7.594;2023-09-18T03:37:57;99619.97;;;45.03;22.67
20889;BME280;10604;51.976;7.594;2023-09-18T03:40:22;99626.75;;;45.35;22.53
20889;BME280;10604;51.976;7.594;2023-09-18T03:42:48;99625.31;;;45.56;22.27
20889;BME280;10604;51.976;7.594;2023-09-18T03:45:16;99621.50;;;45.14;22.61
20889;BME280;10604;51.976;7.594;2023-09-18T03:47:43;99630.53;;;45.44;22.30
20889;BME280;10604;51.976;7.594;2023-09-18T03:50:09;99624.81;;;45.16;22.74
20889;BME280;10604;51.976;7.594;2023-09-18T03:52:34;99620.13;;;45.49;22.42
20889;BME280;10604;51.976;7.594;2023-09-18T03:55:00;99617.84;;;45.70;22.32
20889;BME280;10604;51.976;7.594;2023-09-18T03:57:25;99614.69;;;45.58;22.35
20889;BME280;10604;51.976;7.594;2023-09-18T03:59:50;99599.50;;;45.32;22.88
20889;BME280;10604;51.976;7.594;2023-09-18T04:02:15;99590.59;;;45.30;22.38
20889;BME280;10604;51.976;7.594;2023-09-18T04:04:41;99593.09;;;45.12;22.86
20889;BME280;10604;51.976;7.594;2023-09-18T04:07:06;99590.72;;;45.57;22.83
20889;BME280;10604;51.976;7.594;2023-09-18T04:09:31;99592.66;;;45.75;22.56
20889;BME280;10604;51.976;7.594;2023-09-18T04:11:57;99594.72;;;45.83;22.25
20889;BME280;10604;51.976;7.594;2023-09-18T04:14:22;99587.56;;;45.77;22.02
20889;BME280;10604;51.976;7.594;2023-09-18T04:16:47;99588.47;;;45.59;22.47
20889;BME280;10604;51.976;7.594;2023-09-18T04:19:13;99578.31;;;45.49;22.55
20889;BME280;10604;51.976;7.594;2023-09-18T04:21:38;99581.50;;;45.75;22.15
20889;BME280;10604;51.976;7.594;2023-09-18T04:24:03;99584.19;;;45.80;22.01
20889;BME280;10604;51.976;7.594;2023-09-18T04:26:29;99571.44;;;45.42;22.51
20889;BME280;10604;51.976;7.594;2023-09-18T04:28:58;99570.69;;;45.55;22.54
20889;BME280;10604;51.976;7.594;2023-09-18T04:31:24;99553.94;;;45.55;22.55
20889;BME280;10604;51.976;7.594;2023-09-18T04:33:49;99539.28;;;45.95;22.15
20889;BME280;10604;51.976;7.594;2023-09-18T04:36:14;99540.03;;;46.28;21.90
20889;BME280;10604;51.976;7.594;2023-09-18T04:38:40;99535.63;;;45.81;22.46
20889;BME280;10604;51.976;7.594;2023-09-18T04:41:05;99538.06;;;46.02;22.21
20889;BME280;10604;51.976;7.594;2023-09-18T04:43:33;99553.13;;;46.00;22.30
20889;BME280;10604;51.976;7.594;2023-09-18T04:45:58;99549.09;;;46.61;21.74
20889;BME280;10604;51.976;7.594;2023-09-18T04:48:23;99548.09;;;46.44;21.97
20889;BME280;10604;51.976;7.594;2023-09-18T04:50:48;99547.25;;;46.16;22.26
20889;BME280;10604;51.976;7.594;2023-09-18T04:53:14;99539.09;;;46.33;22.05
20889;BME280;10604;51.976;7.594;2023-09-18T04:55:39;99544.88;;;46.09;22.29
20889;BME280;10604;51.976;7.594;2023-09-18T04:58:04;99531.13;;;46.13;22.24
20889;BME280;10604;51.976;7.594;2023-09-18T05:00:30;99539.50;;;46.13;22.39
20889;BME280;10604;51.976;7.594;2023-09-18T05:02:56;99543.34;;;46.03;22.35
20889;BME280;10604;51.976;7.594;2023-09-18T05:05:23;99558.00;;;46.09;22.17
20889;BME280;10604;51.976;7.594;2023-09-18T05:07:48;99555.63;;;46.16;22.25
20889;BME280;10604;51.976;7.594;2023-09-18T05:10:13;99553.47;;;46.40;22.06
20889;BME280;10604;51.976;7.594;2023-09-18T05:12:38;99561.94;;;46.35;21.98
20889;BME280;10604;51.976;7.594;2023-09-18T05:15:04;99553.88;;;46.47;22.10
20889;BME280;10604;51.976;7.594;2023-09-18T05:17:39;99568.19;;;46.32;22.17
20889;BME280;10604;51.976;7.594;2023-09-18T05:20:06;99572.09;;;46.31;22.16
20889;BME280;10604;51.976;7.594;2023-09-18T05:22:32;99564.00;;;46.16;22.19
20889;BME280;10604;51.976;7.594;2023-09-18T05:24:57;99557.19;;;46.08;22.07
20889;BME280;10604;51.976;7.594;2023-09-18T05:27:22;99553.28;;;46.23;21.88
20889;BME280;10604;51.976;7.594;2023-09-18T05:29:50;99552.34;;;46.68;21.73
20889;BME280;10604;51.976;7.594;2023-09-18T05:32:15;99563.81;;;46.40;22.05
20889;BME280;10604;51.976;7.594;2023-09-18T05:34:40;99575.78;;;46.40;22.00
20889;BME280;10604;51.976;7.594;2023-09-18T05:37:05;99578.28;;;46.28;22.08
20889;BME280;10604;51.976;7.594;2023-09-18T05:39:30;99571.00;;;45.86;22.29
20889;BME280;10604;51.976;7.594;2023-09-18T05:41:56;99566.69;;;45.61;22.68
20889;BME280;10604;51.976;7.594;2023-09-18T05:44:21;99557.28;;;46.17;22.04
20889;BME280;10604;51.976;7.594;2023-09-18T05:46:47;99564.00;;;46.02;22.14
20889;BME280;10604;51.976;7.594;2023-09-18T05:49:12;99565.28;;;46.37;21.95
20889;BME280;10604;51.976;7.594;2023-09-18T05:51:37;99574.03;;;46.71;21.79
20889;BME280;10604;51.976;7.594;2023-09-18T05:54:03;99570.19;;;46.81;21.68
20889;BME280;10604;51.976;7.594;2023-09-18T05:56:28;99581.50;;;46.21;21.91
20889;BME280;10604;51.976;7.594;2023-09-18T05:58:53;99572.50;;;47.15;21.31
20889;BME280;10604;51.976;7.594;2023-09-18T06:01:20;99580.13;;;46.87;21.58
20889;BME280;10604;51.976;7.594;2023-09-18T06:03:45;99585.47;;;47.11;21.48
20889;BME280;10604;51.976;7.594;2023-09-18T06:06:10;99588.78;;;47.35;21.37
20889;BME280;10604;51.976;7.594;2023-09-18T06:08:36;99592.34;;;47.49;21.07
20889;BME280;10604;51.976;7.594;2023-09-18T06:11:01;99592.50;;;46.95;21.71
20889;BME280;10604;51.976;7.594;2023-09-18T06:13:27;99592.25;;;47.19;21.72
20889;BME280;10604;51.976;7.594;2023-09-18T06:15:53;99591.19;;;47.28;21.63
20889;BME280;10604;51.976;7.594;2023-09-18T06:18:19;99592.72;;;47.57;21.30
20889;BME280;10604;51.976;7.594;2023-09-18T06:20:45;99578.22;;;47.55;21.31
20889;BME280;10604;51.976;7.594;2023-09-18T06:23:11;99581.16;;;46.78;21.87
20889;BME280;10604;51.976;7.594;2023-09-18T06:25:36;99592.88;;;47.51;21.74
20889;BME280;10604;51.976;7.594;2023-09-18T06:28:03;99598.03;;;47.22;21.57
20889;BME280;10604;51.976;7.594;2023-09-18T06:30:29;99601.13;;;47.34;21.55
20889;BME280;10604;51.976;7.594;2023-09-18T06:32:56;99585.59;;;47.28;21.38
20889;BME280;10604;51.976;7.594;2023-09-18T06:35:21;99591.59;;;47.35;21.35
20889;BME280;10604;51.976;7.594;2023-09-18T06:37:46;99578.50;;;47.98;20.87
20889;BME280;10604;51.976;7.594;2023-09-18T06:40:12;99583.41;;;47.92;20.82
20889;BME280;10604;51.976;7.594;2023-09-18T06:42:37;99594.91;;;47.60;21.07
20889;BME280;10604;51.976;7.594;2023-09-18T06:45:03;99597.59;;;47.96;20.80
20889;BME280;10604;51.976;7.594;2023-09-18T06:47:28;99596.16;;;47.76;21.35
20889;BME280;10604;51.976;7.594;2023-09-18T06:49:53;99597.22;;;46.72;22.12
20889;BME280;10604;51.976;7.594;2023-09-18T06:52:18;99610.31;;;46.99;21.78
20889;BME280;10604;51.976;7.594;2023-09-18T06:54:44;99614.63;;;45.95;22.21
20889;BME280;10604;51.976;7.594;2023-09-18T06:57:09;99623.31;;;46.67;21.83
20889;BME280;10604;51.976;7.594;2023-09-18T06:59:34;99631.88;;;47.57;21.44
20889;BME280;10604;51.976;7.594;2023-09-18T07:02:00;99631.81;;;47.12;21.60
20889;BME280;10604;51.976;7.594;2023-09-18T07:04:26;99633.34;;;47.68;21.07
20889;BME280;10604;51.976;7.594;2023-09-18T07:06:51;99631.34;;;47.46;20.74
20889;BME280;10604;51.976;7.594;2023-09-18T07:09:18;99607.22;;;47.00;21.69
20889;BME280;10604;51.976;7.594;2023-09-18T07:11:43;99596.63;;;48.00;21.04
20889;BME280;10604;51.976;7.594;2023-09-18T07:14:09;99612.69;;;47.86;20.77
20889;BME280;10604;51.976;7.594;2023-09-18T07:16:34;99608.63;;;45.88;22.53
20889;BME280;10604;51.976;7.594;2023-09-18T07:18:59;99612.06;;;47.44;21.67
20889;BME280;10604;51.976;7.594;2023-09-18T07:21:25;99626.97;;;46.90;21.73
20889;BME280;10604;51.976;7.594;2023-09-18T07:23:50;99628.53;;;46.42;21.85
20889;BME280;10604;51.976;7.594;2023-09-18T07:26:16;99635.13;;;47.14;21.34
20889;BME280;10604;51.976;7.594;2023-09-18T07:28:41;99638.28;;;46.44;22.16
20889;BME280;10604;51.976;7.594;2023-09-18T07:31:08;99644.00;;;46.66;21.64
20889;BME280;10604;51.976;7.594;2023-09-18T07:33:34;99647.81;;;46.70;22.16
20889;BME280;10604;51.976;7.594;2023-09-18T07:35:59;99639.72;;;46.28;22.38
20889;BME280;10604;51.976;7.594;2023-09-18T07:38:25;99643.06;;;46.71;22.13
20889;BME280;10604;51.976;7.594;2023-09-18T07:40:50;99653.97;;;45.61;22.75
20889;BME280;10604;51.976;7.594;2023-09-18T07:43:15;99665.78;;;46.37;21.99
20889;BME280;10604;51.976;7.594;2023-09-18T07:45:41;99649.84;;;44.55;23.17
20889;BME280;10604;51.976;7.594;2023-09-18T07:48:06;99648.53;;;46.03;22.33
20889;BME280;10604;51.976;7.594;2023-09-18T07:50:32;99648.31;;;47.72;21.13
20889;BME280;10604;51.976;7.594;2023-09-18T07:52:58;99653.78;;;47.77;20.80
20889;BME280;10604;51.976;7.594;2023-09-18T07:55:23;99646.78;;;48.10;21.15
20889;BME280;10604;51.976;7.594;2023-09-18T07:57:49;99658.72;;;46.26;21.63
20889;BME280;10604;51.976;7.594;2023-09-18T08:00:14;99660.97;;;45.21;22.81
20889;BME280;10604;51.976;7.594;2023-09-18T08:02:40;99656.47;;;46.28;22.21
20889;BME280;10604;51.976;7.594;2023-09-18T08:05:07;99647.88;;;44.98;22.94
20889;BME280;10604;51.976;7.594;2023-09-18T08:07:33;99653.66;;;47.60;21.21
20889;BME280;10604;51.976;7.594;2023-09-18T08:10:00;99651.03;;;47.27;21.04
20889;BME280;10604;51.976;7.594;2023-09-18T08:12:25;99651.34;;;47.84;20.81
20889;BME280;10604;51.976;7.594;2023-09-18T08:14:50;99653.34;;;47.25;21.12
20889;BME280;10604;51.976;7.594;2023-09-18T08:17:16;99645.63;;;48.11;20.85
20889;BME280;10604;51.976;7.594;2023-09-18T08:19:41;99648.09;;;48.92;20.33
20889;BME280;10604;51.976;7.594;2023-09-18T08:22:07;99657.19;;;48.18;20.41
20889;BME280;10604;51.976;7.594;2023-09-18T08:24:33;99660.28;;;47.14;21.02
20889;BME280;10604;51.976;7.594;2023-09-18T08:26:58;99664.69;;;47.29;21.21
20889;BME280;10604;51.976;7.594;2023-09-18T08:29:23;99668.56;;;45.35;22.43
20889;BME280;10604;51.976;7.594;2023-09-18T08:31:49;99694.94;;;47.40;21.03
20889;BME280;10604;51.976;7.594;2023-09-18T08:34:15;99698.66;;;45.38;22.53
20889;BME280;10604;51.976;7.594;2023-09-18T08:36:40;99697.88;;;47.08;21.56
20889;BME280;10604;51.976;7.594;2023-09-18T08:39:06;99686.13;;;45.16;22.59
20889;BME280;10604;51.976;7.594;2023-09-18T08:41:31;99680.25;;;47.71;20.85
20889;BME280;10604;51.976;7.594;2023-09-18T08:44:00;99697.44;;;46.32;21.83
20889;BME280;10604;51.976;7.594;2023-09-18T08:46:26;99688.34;;;47.23;21.21
20889;BME280;10604;51.976;7.594;2023-09-18T08:48:51;99680.25;;;47.21;21.50
20889;BME280;10604;51.976;7.594;2023-09-18T08:51:18;99691.09;;;45.94;22.38
20889;BME280;10604;51.976;7.594;2023-09-18T08:53:43;99696.56;;;45.67;22.46
20889;BME280;10604;51.976;7.594;2023-09-18T08:56:09;99698.88;;;46.30;21.71
20889;BME280;10604;51.976;7.594;2023-09-18T08:58:36;99688.34;;;47.59;20.98
20889;BME280;10604;51.976;7.594;2023-09-18T09:01:03;99698.91;;;46.85;21.21
20889;BME280;10604;51.976;7.594;2023-09-18T09:03:34;99699.69;;;45.42;22.48
20889;BME280;10604;51.976;7.594;2023-09-18T09:06:00;99695.22;;;45.03;22.88
20889;BME280;10604;51.976;7.594;2023-09-18T09:08:27;99691.28;;;45.04;22.57
20889;BME280;10604;51.976;7.594;2023-09-18T09:10:52;99681.59;;;47.24;21.05
20889;BME280;10604;51.976;7.594;2023-09-18T09:13:18;99688.13;;;46.37;21.46
20889;BME280;10604;51.976;7.594;2023-09-18T09:15:44;99688.06;;;48.36;19.66
20889;BME280;10604;51.976;7.594;2023-09-18T09:18:13;99695.09;;;46.21;21.23
20889;BME280;10604;51.976;7.594;2023-09-18T09:20:42;99704.63;;;47.57;20.33
20889;BME280;10604;51.976;7.594;2023-09-18T09:23:18;99704.22;;;46.26;21.27
20889;BME280;10604;51.976;7.594;2023-09-18T09:25:43;99699.72;;;46.44;21.50
20889;BME280;10604;51.976;7.594;2023-09-18T09:28:08;99691.81;;;48.00;20.32
20889;BME280;10604;51.976;7.594;2023-09-18T09:30:34;99677.94;;;48.17;19.56
20889;BME280;10604;51.976;7.594;2023-09-18T09:33:01;99695.31;;;48.67;19.44
20889;BME280;10604;51.976;7.594;2023-09-18T09:35:30;99686.91;;;46.11;21.32
20889;BME280;10604;51.976;7.594;2023-09-18T09:37:56;99668.38;;;47.51;20.78
20889;BME280;10604;51.976;7.594;2023-09-18T09:40:22;99666.66;;;47.64;20.30
20889;BME280;10604;51.976;7.594;2023-09-18T09:42:48;99680.16;;;45.47;21.38
20889;BME280;10604;51.976;7.594;2023-09-18T09:45:16;99694.56;;;46.79;21.01
20889;BME280;10604;51.976;7.594;2023-09-18T09:47:42;99690.59;;;46.25;21.23
20889;BME280;10604;51.976;7.594;2023-09-18T09:50:09;99695.78;;;46.13;21.55
20889;BME280;10604;51.976;7.594;2023-09-18T09:52:35;99700.56;;;46.86;20.70
20889;BME280;10604;51.976;7.594;2023-09-18T09:55:00;99701.50;;;47.72;20.45
20889;BME280;10604;51.976;7.594;2023-09-18T09:57:26;99704.34;;;47.44;19.99
20889;BME280;10604;51.976;7.594;2023-09-18T09:59:51;99704.63;;;47.07;20.61
20889;BME280;10604;51.976;7.594;2023-09-18T10:02:19;99705.38;;;46.25;21.18
20889;BME280;10604;51.976;7.594;2023-09-18T10:04:47;99695.41;;;44.88;21.77
20889;BME280;10604;51.976;7.594;2023-09-18T10:07:14;99701.63;;;44.80;22.71
20889;BME280;10604;51.976;7.594;2023-09-18T10:09:41;99710.53;;;44.82;22.56
20889;BME280;10604;51.976;7.594;2023-09-18T10:12:10;99705.59;;;45.59;21.47
20889;BME280;10604;51.976;7.594;2023-09-18T10:14:35;99710.25;;;45.02;22.16
20889;BME280;10604;51.976;7.594;2023-09-18T10:17:04;99718.56;;;48.37;19.74
20889;BME280;10604;51.976;7.594;2023-09-18T10:22:30;99721.28;;;47.12;20.44
20889;BME280;10604;51.976;7.594;2023-09-18T10:24:59;99720.66;;;45.58;21.26
20889;BME280;10604;51.976;7.594;2023-09-18T10:27:29;99731.50;;;44.74;21.75
20889;BME280;10604;51.976;7.594;2023-09-18T10:29:56;99716.84;;;46.24;20.99
20889;BME280;10604;51.976;7.594;2023-09-18T10:32:22;99720.47;;;46.98;20.36
20889;BME280;10604;51.976;7.594;2023-09-18T10:34:48;99725.16;;;45.16;21.65
20889;BME280;10604;51.976;7.594;2023-09-18T10:37:14;99722.34;;;44.11;22.47
20889;BME280;10604;51.976;7.594;2023-09-18T10:39:40;99727.38;;;46.59;20.43
20889;BME280;10604;51.976;7.594;2023-09-18T10:42:07;99745.31;;;46.99;20.12
20889;BME280;10604;51.976;7.594;2023-09-18T10:44:32;99732.59;;;47.57;19.76
20889;BME280;10604;51.976;7.594;2023-09-18T10:46:57;99735.34;;;47.34;19.88
20889;BME280;10604;51.976;7.594;2023-09-18T10:49:24;99720.88;;;45.24;21.90
20889;BME280;10604;51.976;7.594;2023-09-18T10:51:49;99729.94;;;46.69;20.68
20889;BME280;10604;51.976;7.594;2023-09-18T10:54:22;99720.97;;;46.72;20.47
20889;BME280;10604;51.976;7.594;2023-09-18T10:56:47;99720.09;;;48.74;19.19
20889;BME280;10604;51.976;7.594;2023-09-18T10:59:14;99712.41;;;48.26;19.30
20889;BME280;10604;51.976;7.594;2023-09-18T11:01:39;99720.78;;;49.45;18.48
20889;BME280;10604;51.976;7.594;2023-09-18T11:04:05;99713.41;;;49.66;17.97
20889;BME280;10604;51.976;7.594;2023-09-18T11:11:45;99743.91;;;50.28;18.01
20889;BME280;10604;51.976;7.594;2023-09-18T11:14:13;99737.06;;;51.93;17.54
20889;BME280;10604;51.976;7.594;2023-09-18T11:16:40;99728.31;;;49.19;18.00
20889;BME280;10604;51.976;7.594;2023-09-18T11:19:09;99740.72;;;50.38;17.51
20889;BME280;10604;51.976;7.594;2023-09-18T11:21:35;99737.97;;;50.85;17.31
20889;BME280;10604;51.976;7.594;2023-09-18T11:24:01;99725.91;;;50.03;17.40
20889;BME280;10604;51.976;7.594;2023-09-18T11:26:32;99728.72;;;50.12;17.98
20889;BME280;10604;51.976;7.594;2023-09-18T11:29:01;99733.84;;;49.75;18.03
20889;BME280;10604;51.976;7.594;2023-09-18T11:31:45;99720.47;;;49.38;18.22
20889;BME280;10604;51.976;7.594;2023-09-18T11:34:15;99721.03;;;50.56;18.30
20889;BME280;10604;51.976;7.594;2023-09-18T11:36:44;99725.41;;;50.27;17.80
20889;BME280;10604;51.976;7.594;2023-09-18T11:39:09;99723.16;;;48.64;19.01
20889;BME280;10604;51.976;7.594;2023-09-18T11:41:36;99716.44;;;50.42;17.61
20889;BME280;10604;51.976;7.594;2023-09-18T11:46:38;99701.00;;;49.85;18.64
20889;BME280;10604;51.976;7.594;2023-09-18T11:49:06;99724.66;;;51.23;17.02
20889;BME280;10604;51.976;7.594;2023-09-18T11:51:32;99721.06;;;50.38;17.49
20889;BME280;10604;51.976;7.594;2023-09-18T11:53:57;99709.44;;;48.23;18.68
20889;BME280;10604;51.976;7.594;2023-09-18T11:56:23;99712.88;;;47.39;18.99
20889;BME280;10604;51.976;7.594;2023-09-18T11:58:49;99706.94;;;50.09;17.69
20889;BME280;10604;51.976;7.594;2023-09-18T12:01:15;99717.19;;;50.60;17.32
20889;BME280;10604;51.976;7.594;2023-09-18T12:03:41;99717.09;;;51.15;17.01
20889;BME280;10604;51.976;7.594;2023-09-18T12:06:06;99712.59;;;50.56;17.47
20889;BME280;10604;51.976;7.594;2023-09-18T12:08:34;99709.66;;;50.81;17.13
20889;BME280;10604;51.976;7.594;2023-09-18T12:11:00;99699.56;;;52.01;16.47
20889;BME280;10604;51.976;7.594;2023-09-18T12:13:30;99709.03;;;51.76;16.68
20889;BME280;10604;51.976;7.594;2023-09-18T12:15:56;99705.97;;;51.69;16.82
20889;BME280;10604;51.976;7.594;2023-09-18T12:18:22;99714.72;;;50.97;16.48
20889;BME280;10604;51.976;7.594;2023-09-18T12:20:49;99709.97;;;51.80;16.78
20889;BME280;10604;51.976;7.594;2023-09-18T12:23:15;99720.75;;;51.87;16.53
20889;BME280;10604;51.976;7.594;2023-09-18T12:25:41;99712.34;;;51.37;16.52
20889;BME280;10604;51.976;7.594;2023-09-18T12:28:07;99710.38;;;50.70;17.44
20889;BME280;10604;51.976;7.594;2023-09-18T12:30:33;99716.63;;;51.84;16.93
20889;BME280;10604;51.976;7.594;2023-09-18T12:32:58;99719.09;;;51.65;16.58
20889;BME280;10604;51.976;7.594;2023-09-18T12:35:25;99711.19;;;48.10;18.21
20889;BME280;10604;51.976;7.594;2023-09-18T12:37:54;99718.72;;;49.02;17.66
20889;BME280;10604;51.976;7.594;2023-09-18T12:40:29;99710.75;;;48.25;18.64
20889;BME280;10604;51.976;7.594;2023-09-18T12:42:58;99703.13;;;50.05;17.26
20889;BME280;10604;51.976;7.594;2023-09-18T12:45:24;99700.31;;;51.27;16.79
20889;BME280;10604;51.976;7.594;2023-09-18T12:47:50;99691.66;;;51.33;16.69
20889;BME280;10604;51.976;7.594;2023-09-18T12:50:16;99689.34;;;52.78;15.71
20889;BME280;10604;51.976;7.594;2023-09-18T12:52:41;99690.34;;;53.47;16.05
20889;BME280;10604;51.976;7.594;2023-09-18T12:55:07;99682.81;;;54.38;15.55
20889;BME280;10604;51.976;7.594;2023-09-18T12:57:33;99683.84;;;52.70;15.71
20889;BME280;10604;51.976;7.594;2023-09-18T12:59:58;99673.00;;;52.02;16.10
20889;BME280;10604;51.976;7.594;2023-09-18T13:02:23;99686.56;;;50.29;16.78
20889;BME280;10604;51.976;7.594;2023-09-18T13:04:52;99680.06;;;51.76;16.68
20889;BME280;10604;51.976;7.594;2023-09-18T13:07:18;99692.22;;;53.83;15.16